Time;durP1;ratioP1;P1;durP2;ratioP2;P2;SDS_P1;SDS_P2;PMS_P1;PMS_P2;Temp;Humidity;BMP_temperature;BMP_pressure;BME280_temperature;BME280_humidity;BME280_pressure;Samples;Min_cycle;Max_cycle;Signal;HPM_P1;HPM_P2
2021/10/20 11:29:42;;;;;;;18.25;11.40;;;18.10;99.90;;;;;;12088878;27;20791;-48
2021/10/20 11:35:32;;;;;;;11.82;6.30;;;18.60;99.90;;;;;;12035403;28;20504;-47
2021/10/20 11:41:19;;;;;;;10.25;6.63;;;19.20;99.90;;;;;;12044565;28;21183;-47
2021/10/20 11:47:09;;;;;;;9.60;6.30;;;19.30;99.90;;;;;;12065340;28;20088;-48
2021/10/20 11:53:01;;;;;;;9.20;5.40;;;19.70;99.90;;;;;;12067157;27;20047;-49
2021/10/20 11:58:48;;;;;;;9.38;5.30;;;20.00;99.90;;;;;;12073578;27;20048;-48
2021/10/20 12:04:39;;;;;;;8.40;5.18;;;20.40;99.90;;;;;;12084603;27;20052;-49
2021/10/20 12:10:27;;;;;;;9.73;4.88;;;20.40;99.90;;;;;;12057703;27;20052;-50
2021/10/20 12:23:07;;;;;;;10.60;5.20;;;20.80;99.90;;;;;;12074689;28;20037;-47
2021/10/20 12:28:55;;;;;;;6.57;4.38;;;21.00;99.90;;;;;;12044649;28;20183;-47
2021/10/20 12:34:52;;;;;;;11.43;5.20;;;21.00;99.90;;;;;;12090770;28;20044;-49
2021/10/20 12:40:41;;;;;;;9.90;5.07;;;21.00;99.90;;;;;;12051914;27;20543;-49
2021/10/20 12:46:29;;;;;;;8.10;5.00;;;21.30;99.90;;;;;;12036966;28;20064;-45
2021/10/20 12:52:16;;;;;;;13.23;5.15;;;21.20;99.90;;;;;;12015151;28;20521;-47
2021/10/20 12:58:04;;;;;;;20.33;5.65;;;21.10;99.90;;;;;;12042990;27;20573;-49
2021/10/20 13:03:51;;;;;;;9.52;5.00;;;20.70;99.90;;;;;;12017652;28;20037;-50
2021/10/20 13:09:38;;;;;;;10.75;5.10;;;20.60;99.90;;;;;;12042588;28;20045;-48
2021/10/20 13:16:03;;;;;;;9.43;5.00;;;20.60;99.90;;;;;;12004262;28;20049;-49
2021/10/20 13:21:50;;;;;;;11.45;5.65;;;20.60;99.90;;;;;;12040134;28;20040;-50
2021/10/20 13:27:37;;;;;;;10.27;5.15;;;20.70;99.90;;;;;;12016967;28;20045;-50
2021/10/20 13:33:25;;;;;;;10.95;5.25;;;20.60;99.90;;;;;;12041213;28;20060;-47
2021/10/20 13:39:13;;;;;;;22.58;5.47;;;20.50;99.90;;;;;;12020050;28;20135;-48
2021/10/20 13:45:07;;;;;;;11.57;5.25;;;20.70;99.90;;;;;;12025448;28;20126;-47
2021/10/20 13:50:55;;;;;;;13.13;5.03;;;20.60;99.90;;;;;;12041674;28;20059;-48
2021/10/20 13:56:42;;;;;;;13.45;4.80;;;20.50;99.90;;;;;;12016607;28;20052;-50
2021/10/20 14:02:29;;;;;;;13.90;5.07;;;20.60;99.90;;;;;;12061108;28;20048;-50
2021/10/20 14:08:20;;;;;;;11.02;4.60;;;20.80;99.90;;;;;;12012599;27;20509;-46
2021/10/20 14:14:07;;;;;;;12.23;5.07;;;20.50;99.90;;;;;;11993706;28;20461;-48
2021/10/20 14:19:54;;;;;;;8.48;4.88;;;20.70;99.90;;;;;;11953637;28;20041;-48
2021/10/20 14:25:42;;;;;;;12.73;4.95;;;20.50;99.90;;;;;;11977179;28;20153;-51
2021/10/20 14:31:31;;;;;;;10.95;5.15;;;20.70;99.90;;;;;;11948707;28;20714;-51
2021/10/20 14:37:18;;;;;;;14.85;5.63;;;20.50;99.90;;;;;;11980767;28;20053;-48
2021/10/20 14:43:07;;;;;;;13.38;5.55;;;20.50;99.90;;;;;;11974693;28;20094;-48
2021/10/20 14:48:54;;;;;;;12.93;5.80;;;20.60;99.90;;;;;;12011450;28;20045;-47
2021/10/20 14:54:41;;;;;;;10.85;4.55;;;20.70;99.90;;;;;;12043711;28;20053;-47
2021/10/20 15:00:30;;;;;;;14.35;5.22;;;20.70;99.90;;;;;;12051410;27;20045;-50
2021/10/20 15:06:17;;;;;;;15.02;5.32;;;20.80;99.90;;;;;;12035365;28;20136;-47
2021/10/20 15:12:05;;;;;;;14.40;4.45;;;21.00;99.90;;;;;;12021490;28;20087;-45
2021/10/20 15:18:01;;;;;;;13.55;4.60;;;20.70;99.90;;;;;;11998030;28;20773;-48
2021/10/20 15:23:48;;;;;;;11.35;4.75;;;20.80;99.90;;;;;;11993911;28;20507;-48
2021/10/20 15:29:35;;;;;;;14.65;4.60;;;20.90;99.90;;;;;;11968920;28;20503;-50
2021/10/20 15:35:25;;;;;;;9.80;4.47;;;20.50;99.90;;;;;;11998098;28;20128;-51
